Time;durP1;ratioP1;P1;durP2;ratioP2;P2;SDS_P1;SDS_P2;PMS_P1;PMS_P2;Temp;Humidity;BMP_temperature;BMP_pressure;BME280_temperature;BME280_humidity;BME280_pressure;Samples;Min_cycle;Max_cycle;Signal;HPM_P1;HPM_P2
2023/12/04 00:00:02;;;;;;;6.67;6.37;;;;;;;5.28;100.00;19765.47;6184251;23;20182;-58
2023/12/04 00:02:29;;;;;;;7.27;6.87;;;;;;;5.25;100.00;19764.34;6184345;23;20541;-59
2023/12/04 00:04:58;;;;;;;7.03;6.70;;;;;;;5.12;100.00;19759.66;6184182;23;20167;-58
2023/12/04 00:07:25;;;;;;;6.97;6.67;;;;;;;5.18;100.00;19443.25;6184534;23;20154;-57
2023/12/04 00:09:52;;;;;;;7.40;7.00;;;;;;;5.20;100.00;18806.78;6184095;23;20158;-57
2023/12/04 00:12:20;;;;;;;8.20;7.80;;;;;;;5.10;100.00;19440.13;6184006;23;20166;-58
2023/12/04 00:14:47;;;;;;;9.00;8.40;;;;;;;5.03;100.00;19119.38;6184003;23;20177;-57
2023/12/04 00:17:14;;;;;;;8.67;8.17;;;;;;;4.82;100.00;19429.97;6184121;23;20220;-58
2023/12/04 00:19:41;;;;;;;8.77;8.37;;;;;;;4.90;100.00;19433.09;6183736;23;20257;-58
2023/12/04 00:22:09;;;;;;;9.53;8.83;;;;;;;4.98;100.00;19754.41;6183908;23;20162;-58
2023/12/04 00:24:37;;;;;;;9.63;9.10;;;;;;;4.81;100.00;22296.91;6183868;23;20168;-57
2023/12/04 00:27:04;;;;;;;9.03;8.43;;;;;;;4.79;100.00;21658.53;6183820;23;20556;-58
2023/12/04 00:29:31;;;;;;;9.63;9.03;;;;;;;4.85;100.00;21023.72;6183916;23;20158;-57
2023/12/04 00:31:58;;;;;;;9.97;9.37;;;;;;;4.84;100.00;19749.34;6184135;23;20242;-57
2023/12/04 00:34:25;;;;;;;9.13;8.63;;;;;;;4.83;100.00;19430.53;6184264;23;20201;-59
2023/12/04 00:36:52;;;;;;;9.90;9.30;;;;;;;4.74;100.00;19745.59;6183781;23;20162;-57
2023/12/04 00:39:21;;;;;;;9.87;9.27;;;;;;;4.75;100.00;20064.25;6184288;23;20178;-58
2023/12/04 00:41:48;;;;;;;9.90;9.33;;;;;;;4.81;100.00;19429.59;6183772;23;20162;-57
2023/12/04 00:44:15;;;;;;;9.80;9.23;;;;;;;4.78;100.00;19747.09;6184355;23;20560;-57
2023/12/04 00:46:42;;;;;;;9.60;9.00;;;;;;;4.81;100.00;19111.34;6184273;23;20217;-59
2023/12/04 00:49:09;;;;;;;9.50;8.90;;;;;;;4.75;100.00;21019.94;6183654;23;20154;-57
2023/12/04 00:51:39;;;;;;;9.87;9.27;;;;;;;4.85;100.00;20386.75;6183773;23;20174;-57
2023/12/04 00:54:07;;;;;;;9.80;9.30;;;;;;;4.85;100.00;21979.66;6183643;23;20158;-58
2023/12/04 00:56:35;;;;;;;9.90;9.30;;;;;;;4.79;100.00;22295.88;6184164;23;20150;-57
2023/12/04 00:59:03;;;;;;;10.27;9.53;;;;;;;4.74;100.00;21019.56;6183733;23;20182;-57
2023/12/04 01:01:30;;;;;;;10.07;9.40;;;;;;;4.69;100.00;21336.13;6183662;23;20162;-58
2023/12/04 01:03:57;;;;;;;9.73;9.23;;;;;;;4.60;100.00;20695.56;6183702;23;20254;-59
2023/12/04 01:06:25;;;;;;;10.77;9.97;;;;;;;4.54;100.00;21967.13;6183912;23;20158;-57
2023/12/04 01:08:52;;;;;;;11.23;10.50;;;;;;;4.47;100.00;22601.28;6183716;23;20216;-59
2023/12/04 01:11:20;;;;;;;11.93;11.13;;;;;;;4.42;100.00;23913.38;6184107;23;20625;-59
2023/12/04 01:13:49;;;;;;;10.50;9.67;;;;;;;4.21;100.00;25109.03;6183643;23;20163;-58
2023/12/04 01:16:16;;;;;;;11.53;10.63;;;;;;;4.34;100.00;27339.22;6183586;23;20220;-62
2023/12/04 01:18:44;;;;;;;10.80;10.00;;;;;;;4.24;100.00;30036.22;6183409;23;20167;-59
2023/12/04 01:21:11;;;;;;;11.10;10.40;;;;;;;4.20;100.00;30240.97;6183601;23;20503;-57
2023/12/04 01:23:38;;;;;;;11.53;10.53;;;;;;;4.27;100.00;30848.06;6183540;23;20158;-59
2023/12/04 01:26:06;;;;;;;12.10;11.13;;;;;;;3.87;100.00;35849.63;6183993;23;20660;-58
2023/12/04 01:28:33;;;;;;;11.67;10.77;;;;;;;4.09;100.00;36828.09;6183733;23;20166;-59
2023/12/04 01:31:01;;;;;;;10.90;10.20;;;;;;;3.77;100.00;37368.81;6183984;23;20589;-58
2023/12/04 01:33:28;;;;;;;11.83;10.83;;;;;;;4.07;100.00;35453.25;6184023;23;20166;-59
2023/12/04 01:35:55;;;;;;;10.67;10.03;;;;;;;3.67;100.00;38178.97;6183597;23;20538;-58
2023/12/04 01:38:22;;;;;;;11.37;10.53;;;;;;;3.96;100.00;37701.22;6183527;23;20225;-60
2023/12/04 01:40:50;;;;;;;9.90;9.40;;;;;;;3.99;100.00;39392.34;6183461;23;20178;-59
2023/12/04 01:43:18;;;;;;;10.17;9.57;;;;;;;3.97;100.00;40650.84;6183683;23;20177;-58
2023/12/04 01:45:46;;;;;;;9.73;9.17;;;;;;;3.86;100.00;41760.47;6184443;23;20245;-58
2023/12/04 01:48:16;;;;;;;10.53;9.77;;;;;;;3.84;100.00;41173.56;6184619;23;20193;-58
2023/12/04 01:50:43;;;;;;;10.07;9.50;;;;;;;3.98;100.00;40461.56;6185443;23;20166;-58
2023/12/04 01:53:10;;;;;;;10.03;9.43;;;;;;;4.02;100.00;42469.88;6185338;23;20205;-57
2023/12/04 01:55:38;;;;;;;10.30;9.77;;;;;;;4.03;100.00;42138.25;6185767;23;20162;-58
2023/12/04 01:58:06;;;;;;;9.70;9.20;;;;;;;4.05;100.00;42972.91;6185307;23;20162;-57
2023/12/04 02:00:34;;;;;;;9.73;9.20;;;;;;;4.08;100.00;41903.94;6185341;23;20237;-59
2023/12/04 02:03:01;;;;;;;10.80;10.00;;;;;;;4.14;100.00;41920.91;6185875;23;20166;-57
2023/12/04 02:05:30;;;;;;;9.97;9.47;;;;;;;4.17;100.00;42568.72;6185181;23;20229;-58
2023/12/04 02:07:57;;;;;;;10.43;9.53;;;;;;;4.15;100.00;43235.41;6185861;23;20598;-59
2023/12/04 02:10:24;;;;;;;10.47;9.87;;;;;;;4.12;100.00;43311.06;6185354;23;20250;-57
2023/12/04 02:12:52;;;;;;;9.97;9.27;;;;;;;4.19;100.00;41576.50;6185780;23;20561;-57
2023/12/04 02:15:19;;;;;;;10.03;9.30;;;;;;;4.02;100.00;41694.41;6185638;23;20169;-57
2023/12/04 02:17:46;;;;;;;10.00;9.40;;;;;;;3.99;100.00;40164.41;6185098;23;20238;-57
2023/12/04 02:20:14;;;;;;;9.77;9.27;;;;;;;4.00;100.00;36644.53;6185312;23;20178;-58
2023/12/04 02:22:43;;;;;;;10.90;10.30;;;;;;;3.93;100.00;35886.25;6185074;23;20168;-58
2023/12/04 02:25:12;;;;;;;10.67;9.87;;;;;;;3.92;100.00;36112.78;6185241;23;20238;-57
2023/12/04 02:27:45;;;;;;;11.07;10.00;;;;;;;3.89;100.00;36158.28;6185339;23;20636;-57
2023/12/04 02:30:14;;;;;;;11.33;10.50;;;;;;;3.94;100.00;34346.56;6185139;23;20213;-57
2023/12/04 02:32:45;;;;;;;11.50;10.70;;;;;;;3.84;100.00;37625.72;6184923;23;20164;-57
2023/12/04 02:35:15;;;;;;;10.77;9.97;;;;;;;3.66;100.00;37314.41;6185010;23;20663;-57
2023/12/04 02:37:43;;;;;;;10.83;9.97;;;;;;;3.78;100.00;37441.56;6185708;23;20613;-57
2023/12/04 02:40:13;;;;;;;11.47;10.60;;;;;;;3.55;100.00;39549.25;6184931;23;20216;-58
2023/12/04 02:42:41;;;;;;;11.47;10.57;;;;;;;3.58;100.00;38542.06;6185056;23;20162;-57
2023/12/04 02:45:09;;;;;;;11.00;10.37;;;;;;;3.41;100.00;37596.88;6184898;23;20162;-57
2023/12/04 02:47:36;;;;;;;12.13;11.30;;;;;;;3.49;100.00;39225.03;6184858;23;20261;-58
2023/12/04 02:50:04;;;;;;;11.37;10.67;;;;;;;3.49;100.00;40214.41;6184903;23;20209;-57
2023/12/04 02:52:31;;;;;;;12.33;11.43;;;;;;;3.52;100.00;41540.78;6184975;23;20202;-58
2023/12/04 02:54:58;;;;;;;11.77;10.87;;;;;;;3.60;100.00;42241.59;6185134;23;20236;-57
2023/12/04 02:57:27;;;;;;;13.13;12.00;;;;;;;3.61;100.00;43357.09;6184791;23;20162;-57
2023/12/04 02:59:54;;;;;;;13.77;12.57;;;;;;;3.45;100.00;47137.13;6184641;23;20198;-58
2023/12/04 03:02:21;;;;;;;13.00;12.00;;;;;;;3.45;100.00;49691.47;6184858;23;20245;-57
2023/12/04 03:04:48;;;;;;;12.83;11.90;;;;;;;3.39;100.00;50777.97;6185238;23;20216;-58
2023/12/04 03:07:15;;;;;;;13.30;12.00;;;;;;;3.41;100.00;48610.75;6185008;23;20170;-59
2023/12/04 03:09:42;;;;;;;12.67;11.67;;;;;;;3.32;100.00;48000.22;6185192;23;20154;-58
2023/12/04 03:12:09;;;;;;;12.63;11.57;;;;;;;3.38;100.00;46918.59;6185146;23;20166;-58
2023/12/04 03:14:38;;;;;;;13.47;12.33;;;;;;;3.30;100.00;45569.03;6184874;23;20249;-58
2023/12/04 03:17:05;;;;;;;13.80;12.40;;;;;;;3.42;100.00;44352.69;6185641;23;20154;-58
2023/12/04 03:19:32;;;;;;;12.23;11.27;;;;;;;3.51;100.00;43617.00;6184621;23;20164;-57
2023/12/04 03:21:59;;;;;;;13.23;12.13;;;;;;;3.49;100.00;43700.84;6185104;23;20510;-58
2023/12/04 03:24:26;;;;;;;13.40;12.10;;;;;;;3.51;100.00;44882.50;6184559;23;20221;-58
2023/12/04 03:26:53;;;;;;;12.37;11.37;;;;;;;3.49;100.00;47400.75;6185003;23;20660;-58
2023/12/04 03:29:20;;;;;;;12.30;11.40;;;;;;;3.37;100.00;46660.03;6184481;23;20249;-58
2023/12/04 03:31:49;;;;;;;14.27;13.03;;;;;;;3.36;100.00;47334.88;6184588;23;20212;-58
2023/12/04 03:34:16;;;;;;;12.93;11.83;;;;;;;3.18;100.00;46870.00;6185477;23;20154;-58
2023/12/04 03:36:43;;;;;;;13.40;12.20;;;;;;;3.26;100.00;45923.09;6184623;23;20162;-58
2023/12/04 03:39:10;;;;;;;13.10;12.00;;;;;;;3.27;100.00;45211.50;6184429;23;20223;-58
2023/12/04 03:41:37;;;;;;;13.43;12.13;;;;;;;3.20;100.00;46942.09;6184436;23;20182;-58
2023/12/04 03:44:04;;;;;;;13.17;12.00;;;;;;;3.03;100.00;46320.38;6184804;23;20155;-59
2023/12/04 03:46:31;;;;;;;12.60;11.53;;;;;;;3.13;100.00;45003.25;6184291;23;20162;-59
2023/12/04 03:49:00;;;;;;;13.20;12.00;;;;;;;2.99;100.00;45877.06;6184741;23;20159;-58
2023/12/04 03:51:27;;;;;;;14.17;12.60;;;;;;;3.15;100.00;44932.31;6184934;23;20166;-58
2023/12/04 03:53:54;;;;;;;14.17;12.80;;;;;;;3.11;100.00;44551.28;6184752;23;20162;-57
2023/12/04 03:56:21;;;;;;;12.80;11.73;;;;;;;2.99;100.00;45769.56;6184327;23;20163;-57
2023/12/04 03:58:48;;;;;;;13.80;12.60;;;;;;;3.00;100.00;45894.97;6184607;23;20548;-57
2023/12/04 04:01:15;;;;;;;13.47;12.17;;;;;;;3.06;100.00;45487.28;6184140;23;20182;-58
2023/12/04 04:03:43;;;;;;;14.03;12.77;;;;;;;3.07;100.00;45033.47;6184627;23;20656;-57
2023/12/04 04:06:11;;;;;;;14.33;13.13;;;;;;;3.05;100.00;45413.97;6184147;23;20177;-58
2023/12/04 04:08:38;;;;;;;14.73;13.33;;;;;;;3.00;100.00;44985.03;6184421;23;20213;-57
2023/12/04 04:11:06;;;;;;;13.40;12.20;;;;;;;3.09;100.00;42993.28;6183847;23;20166;-57
2023/12/04 04:13:33;;;;;;;13.90;12.80;;;;;;;3.12;100.00;44839.94;6184478;23;20217;-59
2023/12/04 04:16:00;;;;;;;12.77;11.63;;;;;;;3.10;100.00;44783.38;6184202;23;20162;-57
2023/12/04 04:18:27;;;;;;;14.73;13.33;;;;;;;3.12;100.00;44884.56;6184219;23;20162;-60
2023/12/04 04:20:54;;;;;;;14.97;13.47;;;;;;;3.21;100.00;44899.19;6184324;23;20186;-57
2023/12/04 04:23:23;;;;;;;13.30;12.13;;;;;;;3.07;100.00;46106.06;6184585;23;20656;-58
2023/12/04 04:25:50;;;;;;;13.03;12.03;;;;;;;3.27;100.00;47550.09;6184558;23;20162;-58
2023/12/04 04:28:17;;;;;;;13.57;12.37;;;;;;;3.21;100.00;48687.16;6183950;23;20205;-57
2023/12/04 04:30:44;;;;;;;12.93;11.73;;;;;;;3.23;100.00;45518.81;6184041;23;20162;-58
2023/12/04 04:33:11;;;;;;;14.60;13.20;;;;;;;3.11;100.00;43691.53;6183844;23;20509;-58
2023/12/04 04:35:38;;;;;;;12.57;11.47;;;;;;;3.24;100.00;44276.50;6183958;23;20162;-58
2023/12/04 04:38:05;;;;;;;13.60;12.40;;;;;;;3.39;100.00;45641.31;6184332;23;20549;-58
2023/12/04 04:40:34;;;;;;;12.97;11.83;;;;;;;3.43;100.00;46345.09;6184207;23;20541;-58
2023/12/04 04:43:01;;;;;;;12.70;11.63;;;;;;;3.36;100.00;45588.47;6184260;23;20213;-57
2023/12/04 04:45:28;;;;;;;12.43;11.53;;;;;;;3.52;100.00;46439.59;6184129;23;20184;-58
2023/12/04 04:47:55;;;;;;;13.27;12.10;;;;;;;3.56;100.00;46510.44;6184739;23;20258;-58
2023/12/04 04:50:22;;;;;;;13.40;12.30;;;;;;;3.47;100.00;45958.00;6183781;23;20185;-57
2023/12/04 04:52:49;;;;;;;13.80;12.50;;;;;;;3.44;100.00;46478.09;6183482;23;20212;-58
2023/12/04 04:55:16;;;;;;;13.93;12.80;;;;;;;3.48;100.00;46839.25;6183503;23;20162;-57
2023/12/04 04:57:45;;;;;;;14.73;13.23;;;;;;;3.51;100.00;46916.81;6183913;23;20163;-56
2023/12/04 05:00:13;;;;;;;13.87;12.57;;;;;;;3.42;100.00;47079.56;6183809;23;20181;-58
2023/12/04 05:02:40;;;;;;;17.27;13.17;;;;;;;3.45;100.00;45680.75;6184038;23;20619;-58
2023/12/04 05:05:08;;;;;;;14.43;13.00;;;;;;;3.50;100.00;46905.97;6183493;23;20162;-58
2023/12/04 05:07:35;;;;;;;17.03;13.93;;;;;;;3.53;100.00;45324.78;6184102;23;20162;-58
2023/12/04 05:10:02;;;;;;;16.80;14.47;;;;;;;3.51;100.00;45950.81;6183917;23;20163;-57
2023/12/04 05:12:29;;;;;;;15.27;13.73;;;;;;;3.49;100.00;45433.78;6183836;23;20232;-58
2023/12/04 05:14:58;;;;;;;15.87;14.07;;;;;;;3.45;100.00;43995.34;6183471;23;20162;-57
2023/12/04 05:17:25;;;;;;;15.33;13.83;;;;;;;3.54;100.00;39523.22;6184014;23;20601;-57
2023/12/04 05:19:52;;;;;;;14.63;13.33;;;;;;;3.62;100.00;41392.81;6184010;23;20213;-58
2023/12/04 05:22:19;;;;;;;14.70;13.33;;;;;;;3.64;100.00;42839.66;6183772;23;20178;-57
2023/12/04 05:24:46;;;;;;;14.17;13.00;;;;;;;3.68;100.00;45841.91;6185692;23;20164;-59
2023/12/04 05:27:13;;;;;;;15.07;13.57;;;;;;;3.61;100.00;49261.53;6185635;23;20162;-59
2023/12/04 05:29:40;;;;;;;14.50;13.10;;;;;;;3.37;100.00;49919.94;6185831;23;20236;-58
2023/12/04 05:32:09;;;;;;;18.57;13.83;;;;;;;3.51;100.00;48679.38;6185471;23;20158;-57
2023/12/04 05:34:36;;;;;;;17.70;14.03;;;;;;;3.52;100.00;46897.63;6185523;23;20158;-58
2023/12/04 05:37:03;;;;;;;13.53;12.33;;;;;;;3.58;100.00;46970.16;6185814;23;20217;-58
2023/12/04 05:39:30;;;;;;;16.47;14.70;;;;;;;3.47;100.00;46440.94;6185358;23;20680;-58
2023/12/04 05:41:57;;;;;;;14.70;13.30;;;;;;;3.59;100.00;43655.69;6185695;23;20237;-57
2023/12/04 05:44:24;;;;;;;14.10;12.80;;;;;;;3.56;100.00;43021.13;6185472;23;20270;-57
2023/12/04 05:46:52;;;;;;;14.27;12.80;;;;;;;3.58;100.00;42402.22;6186019;23;20597;-58
2023/12/04 05:49:20;;;;;;;16.63;14.13;;;;;;;3.67;100.00;41389.00;6185795;23;20500;-59
2023/12/04 05:51:47;;;;;;;13.30;12.10;;;;;;;3.74;100.00;41506.25;6185602;23;20249;-58
2023/12/04 05:54:14;;;;;;;14.73;13.33;;;;;;;3.65;100.00;43448.09;6185225;23;20216;-58
2023/12/04 05:56:42;;;;;;;15.80;14.20;;;;;;;3.60;100.00;42686.22;6185235;23;20158;-57
2023/12/04 05:59:09;;;;;;;14.20;12.87;;;;;;;3.69;100.00;40023.44;6185232;23;20161;-58
2023/12/04 06:01:37;;;;;;;15.17;13.57;;;;;;;3.69;100.00;39538.75;6185572;23;20565;-58
2023/12/04 06:04:05;;;;;;;15.90;14.10;;;;;;;3.69;100.00;37880.34;6185098;23;20159;-59
2023/12/04 06:06:33;;;;;;;14.80;13.30;;;;;;;3.66;100.00;37938.56;6185150;23;20213;-57
2023/12/04 06:09:00;;;;;;;16.27;14.53;;;;;;;3.67;100.00;37549.75;6185203;23;20162;-57
2023/12/04 06:11:27;;;;;;;14.80;13.37;;;;;;;3.75;100.00;36631.00;6185133;23;20169;-58
2023/12/04 06:13:54;;;;;;;14.00;12.60;;;;;;;3.63;100.00;36463.75;6185375;23;20220;-57
2023/12/04 06:16:21;;;;;;;15.27;13.73;;;;;;;3.77;100.00;35546.22;6185392;23;20162;-59
2023/12/04 06:18:48;;;;;;;14.83;13.43;;;;;;;3.81;100.00;32962.00;6184963;23;20162;-58
2023/12/04 06:21:15;;;;;;;17.10;15.17;;;;;;;3.85;100.00;33318.22;6184751;23;20244;-57
2023/12/04 06:23:44;;;;;;;16.00;14.30;;;;;;;3.76;100.00;32495.25;6185351;23;20162;-57
2023/12/04 06:26:13;;;;;;;16.43;14.60;;;;;;;3.89;100.00;30261.66;6184986;23;20265;-57
2023/12/04 06:28:40;;;;;;;15.13;13.63;;;;;;;3.89;100.00;28664.31;6184986;23;20238;-57
2023/12/04 06:31:09;;;;;;;15.07;13.70;;;;;;;3.97;100.00;24580.34;6184805;23;20229;-57
2023/12/04 06:33:37;;;;;;;15.00;13.43;;;;;;;3.99;100.00;24297.81;6184962;23;20224;-58
2023/12/04 06:36:07;;;;;;;15.80;14.23;;;;;;;4.02;100.00;25025.81;6184446;23;20606;-58
2023/12/04 06:38:37;;;;;;;15.23;13.57;;;;;;;4.03;100.00;21310.06;6185395;23;20162;-58
2023/12/04 06:41:06;;;;;;;15.37;13.77;;;;;;;4.08;100.00;21948.59;6184723;23;20194;-58
2023/12/04 06:43:34;;;;;;;14.37;12.87;;;;;;;4.09;100.00;21630.53;6184353;23;20170;-57
2023/12/04 06:46:01;;;;;;;16.10;14.40;;;;;;;4.13;100.00;19405.03;6184599;23;20162;-58
2023/12/04 06:48:29;;;;;;;16.37;14.00;;;;;;;4.21;100.00;19089.53;6184804;23;20158;-56
2023/12/04 06:50:56;;;;;;;17.57;13.70;;;;;;;4.18;100.00;20360.97;6187401;23;20174;-61
2023/12/04 06:53:23;;;;;;;15.40;13.53;;;;;;;4.24;100.00;20363.47;6184407;23;20256;-61
2023/12/04 06:55:50;;;;;;;15.27;13.67;;;;;;;4.27;100.00;19409.84;6184705;23;20162;-61
2023/12/04 06:58:19;;;;;;;14.30;13.07;;;;;;;4.38;100.00;18459.41;6184877;23;20672;-60
2023/12/04 07:00:46;;;;;;;15.07;13.57;;;;;;;4.43;100.00;19097.53;6183982;23;20166;-61
2023/12/04 07:03:13;;;;;;;14.63;13.27;;;;;;;4.46;100.00;19098.81;6184495;23;20170;-61
2023/12/04 07:05:40;;;;;;;14.70;13.47;;;;;;;4.54;100.00;17828.72;6184587;23;20471;-61
2023/12/04 07:08:07;;;;;;;15.87;14.20;;;;;;;4.34;100.00;18776.09;6184492;23;20154;-61
2023/12/04 07:10:34;;;;;;;14.80;13.50;;;;;;;4.51;100.00;19418.88;6184359;23;20238;-61
2023/12/04 07:13:01;;;;;;;15.93;14.37;;;;;;;4.54;100.00;21011.66;6184510;23;20175;-61
2023/12/04 07:15:29;;;;;;;14.30;12.90;;;;;;;4.28;100.00;21638.03;6184746;23;20178;-61
2023/12/04 07:17:56;;;;;;;14.40;13.17;;;;;;;4.61;100.00;16876.75;6184642;23;20158;-62
2023/12/04 07:20:24;;;;;;;15.23;13.73;;;;;;;4.64;100.00;18150.19;6184279;23;20158;-62
2023/12/04 07:22:51;;;;;;;14.60;13.27;;;;;;;4.65;100.00;15287.75;6184794;23;20179;-60
2023/12/04 07:25:18;;;;;;;13.97;12.77;;;;;;;4.63;100.00;18149.84;6184195;23;20162;-61
2023/12/04 07:27:45;;;;;;;14.87;13.27;;;;;;;4.57;100.00;22287.13;6184334;23;20170;-61
2023/12/04 07:30:13;;;;;;;15.13;13.60;;;;;;;4.66;100.00;22927.97;6184422;23;20158;-61
2023/12/04 07:32:42;;;;;;;15.87;14.27;;;;;;;4.65;100.00;22290.25;6184491;23;20237;-62
2023/12/04 07:35:09;;;;;;;15.37;13.83;;;;;;;4.67;100.00;24522.03;6184136;23;20158;-63
2023/12/04 07:37:36;;;;;;;13.87;12.57;;;;;;;4.49;100.00;20054.75;6184819;23;20162;-61
2023/12/04 07:40:05;;;;;;;13.97;12.57;;;;;;;4.51;100.00;22602.97;6183987;23;20162;-62
2023/12/04 07:42:32;;;;;;;13.70;12.40;;;;;;;4.57;100.00;27707.22;6183610;23;20190;-61
2023/12/04 07:45:00;;;;;;;13.53;12.37;;;;;;;4.55;100.00;32495.97;6183851;23;20221;-62
2023/12/04 07:47:27;;;;;;;15.27;13.17;;;;;;;4.52;100.00;33133.34;6184110;23;20193;-62
2023/12/04 07:49:55;;;;;;;14.43;13.00;;;;;;;4.62;100.00;34737.94;6184543;23;20163;-62
2023/12/04 07:52:22;;;;;;;14.23;12.83;;;;;;;4.36;100.00;37280.00;6184387;23;20206;-61
2023/12/04 07:54:50;;;;;;;15.10;13.60;;;;;;;4.57;100.00;36654.00;6184330;23;20623;-58
2023/12/04 07:57:17;;;;;;;15.57;13.60;;;;;;;4.67;100.00;32822.63;6184602;23;20162;-59
2023/12/04 07:59:44;;;;;;;14.90;13.60;;;;;;;4.72;100.00;35064.00;6184599;23;20166;-62
2023/12/04 08:02:13;;;;;;;14.60;13.20;;;;;;;4.72;100.00;38584.56;6184168;23;20435;-62
2023/12/04 08:04:40;;;;;;;14.43;12.93;;;;;;;4.57;100.00;37934.06;6184156;23;20619;-62
2023/12/04 08:07:09;;;;;;;15.03;13.67;;;;;;;4.66;100.00;39220.91;6182788;23;20159;-63
2023/12/04 08:09:36;;;;;;;14.67;13.27;;;;;;;4.64;100.00;39219.16;6183897;23;20162;-63
2023/12/04 08:12:03;;;;;;;16.37;14.70;;;;;;;4.78;100.00;35067.47;6184040;23;20672;-62
2023/12/04 08:14:30;;;;;;;15.57;13.97;;;;;;;4.76;100.00;35706.06;6183941;23;20162;-62
2023/12/04 08:16:57;;;;;;;14.70;13.00;;;;;;;4.78;100.00;37628.09;6184131;23;20162;-63
2023/12/04 08:19:24;;;;;;;15.03;13.63;;;;;;;4.90;100.00;36675.25;6183577;23;20169;-62
2023/12/04 08:21:51;;;;;;;14.10;12.93;;;;;;;4.88;100.00;39877.00;6183680;23;20186;-62
2023/12/04 08:24:20;;;;;;;16.83;14.50;;;;;;;4.88;100.00;45007.75;6179600;23;20810;-63
2023/12/04 08:26:47;;;;;;;14.67;13.37;;;;;;;4.79;100.00;43396.66;6182280;23;20159;-63
2023/12/04 08:29:17;;;;;;;15.30;14.00;;;;;;;4.79;100.00;48532.00;6179555;23;20162;-65
2023/12/04 08:31:45;;;;;;;13.33;12.07;;;;;;;4.81;100.00;49497.47;6184066;23;20163;-64
2023/12/04 08:34:13;;;;;;;13.03;11.93;;;;;;;4.46;100.00;49146.00;6184426;23;20186;-64
2023/12/04 08:36:40;;;;;;;12.90;11.67;;;;;;;4.75;100.00;41149.50;6184284;23;20162;-63
2023/12/04 08:39:07;;;;;;;13.80;12.60;;;;;;;4.80;100.00;46284.72;6184373;23;20165;-63
2023/12/04 08:41:35;;;;;;;12.80;11.80;;;;;;;4.72;100.00;48846.78;6183176;23;20182;-62
2023/12/04 08:44:03;;;;;;;12.47;11.33;;;;;;;4.84;100.00;49821.41;6183662;23;20220;-63
2023/12/04 08:46:30;;;;;;;13.00;11.83;;;;;;;4.89;100.00;49825.34;6183597;23;20170;-62
2023/12/04 08:48:57;;;;;;;15.17;13.30;;;;;;;5.05;100.00;45984.38;6183966;23;20197;-63
2023/12/04 08:51:24;;;;;;;13.30;12.13;;;;;;;5.10;100.00;51129.41;6184292;23;20170;-62
2023/12/04 08:53:51;;;;;;;13.93;12.57;;;;;;;5.04;100.00;54986.13;6184248;23;20169;-63
2023/12/04 08:56:18;;;;;;;13.07;11.83;;;;;;;4.99;100.00;53049.91;6184350;23;20167;-63
2023/12/04 08:58:46;;;;;;;12.40;11.43;;;;;;;4.91;100.00;45331.06;6183752;23;20170;-64
2023/12/04 09:01:13;;;;;;;14.03;12.63;;;;;;;5.06;100.00;51126.75;6183384;23;20158;-64
2023/12/04 09:03:40;;;;;;;15.37;14.00;;;;;;;5.11;100.00;53704.69;6183553;23;20174;-62
2023/12/04 09:06:08;;;;;;;20.67;13.83;;;;;;;5.07;100.00;61433.88;6184048;23;20589;-62
2023/12/04 09:08:36;;;;;;;22.80;15.87;;;;;;;5.23;100.00;60805.16;6183796;23;20166;-66
2023/12/04 09:11:03;;;;;;;22.87;16.73;;;;;;;5.24;100.00;62420.16;6184086;23;20166;-63
2023/12/04 09:13:31;;;;;;;38.50;16.67;;;;;;;5.19;100.00;65966.03;6183914;23;20212;-65
2023/12/04 09:16:00;;;;;;;35.07;16.13;;;;;;;5.15;100.00;66285.09;6183873;23;20158;-64
2023/12/04 09:18:27;;;;;;;27.80;14.30;;;;;;;5.17;100.00;66610.50;6183459;23;20162;-64
2023/12/04 09:20:54;;;;;;;16.00;14.07;;;;;;;5.19;100.00;62091.47;6183365;23;20597;-63
2023/12/04 09:23:21;;;;;;;15.17;13.73;;;;;;;5.26;100.00;64358.91;6183035;23;20188;-63
2023/12/04 09:25:48;;;;;;;14.53;13.13;;;;;;;5.22;100.00;67262.59;6183818;23;20162;-63
2023/12/04 09:28:16;;;;;;;16.43;14.47;;;;;;;5.15;100.00;69840.19;6183603;23;20474;-64
2023/12/04 09:30:43;;;;;;;17.30;14.43;;;;;;;5.33;100.00;74070.09;6184270;23;20169;-63
2023/12/04 09:33:11;;;;;;;16.80;14.80;;;;;;;5.23;100.00;73734.09;6183678;23;20493;-63
2023/12/04 09:35:38;;;;;;;15.50;13.63;;;;;;;5.27;100.00;77951.09;6183767;23;20217;-63
2023/12/04 09:38:06;;;;;;;18.90;13.73;;;;;;;5.32;100.00;73744.91;6183198;23;20501;-64
2023/12/04 09:40:34;;;;;;;20.20;14.33;;;;;;;5.43;100.00;77324.00;6183613;23;20216;-63
2023/12/04 09:43:01;;;;;;;13.97;12.87;;;;;;;5.40;100.00;83486.22;6183837;23;20182;-62
2023/12/04 09:45:32;;;;;;;13.60;12.30;;;;;;;5.31;100.00;78929.38;6183273;23;20162;-63
2023/12/04 09:48:00;;;;;;;13.47;12.17;;;;;;;5.46;100.00;81546.22;6183868;23;20166;-62
2023/12/04 09:50:29;;;;;;;13.03;11.97;;;;;;;5.48;100.00;78952.47;6183547;23;20162;-62
2023/12/04 09:53:00;;;;;;;18.37;13.30;;;;;;;5.33;100.00;82502.66;6183654;23;20193;-63
2023/12/04 09:55:27;;;;;;;15.93;12.50;;;;;;;5.55;100.00;92290.78;6183499;23;20205;-63
2023/12/04 09:57:58;;;;;;;21.87;13.77;;;;;;;5.58;100.00;94903.34;6183374;23;20220;-58
2023/12/04 10:00:26;;;;;;;15.47;13.00;;;;;;;5.58;100.00;96859.91;6183264;23;20205;-58
2023/12/04 10:02:54;;;;;;;16.73;13.77;;;;;;;5.45;100.00;98469.28;6183490;23;20644;-57
2023/12/04 10:05:21;;;;;;;14.60;13.00;;;;;;;5.59;100.00;105352.88;6183491;23;20162;-58
2023/12/04 10:07:50;;;;;;;16.87;15.27;;;;;;;5.49;100.00;122376.72;6183065;23;20177;-59
2023/12/04 10:10:18;;;;;;;18.30;14.10;;;;;;;5.39;100.00;125642.03;6184688;23;20165;-59
2023/12/04 10:12:45;;;;;;;17.90;13.07;;;;;;;5.32;100.00;111847.09;6185841;23;20166;-59
2023/12/04 10:15:13;;;;;;;23.80;13.67;;;;;;;5.44;100.00;110232.84;6185545;23;20159;-59
2023/12/04 10:17:43;;;;;;;16.87;14.50;;;;;;;5.28;100.00;110203.63;6185183;23;20158;-59
2023/12/04 10:20:12;;;;;;;15.13;13.53;;;;;;;5.35;100.00;104330.06;6187746;23;20193;-64
2023/12/04 10:22:55;;;;;;;30.13;13.73;;;;;;;5.30;100.00;108243.31;6185336;23;20182;-64
2023/12/04 10:25:24;;;;;;;24.00;13.60;;;;;;;5.23;100.00;83137.84;6185106;23;20162;-63
2023/12/04 10:27:51;;;;;;;22.60;14.57;;;;;;;5.28;100.00;85093.22;6184974;23;20158;-64
2023/12/04 10:30:27;;;;;;;28.50;15.77;;;;;;;5.23;100.00;85735.75;6185674;23;20185;-58
2023/12/04 10:33:00;;;;;;;27.37;13.80;;;;;;;5.31;100.00;84122.94;6184347;23;20158;-58
2023/12/04 10:35:29;;;;;;;32.90;13.87;;;;;;;5.20;100.00;86381.28;6184603;23;20242;-58
2023/12/04 10:37:59;;;;;;;24.30;12.87;;;;;;;5.26;100.00;76005.53;6184646;23;20158;-57
2023/12/04 10:40:27;;;;;;;17.93;13.17;;;;;;;5.42;100.00;77646.94;6184909;23;20163;-57
2023/12/04 10:43:12;;;;;;;12.27;11.37;;;;;;;5.28;100.00;78600.97;6184779;23;20213;-57
2023/12/04 10:45:41;;;;;;;13.57;12.27;;;;;;;5.21;100.00;66614.53;6184911;23;20479;-57
2023/12/04 10:48:09;;;;;;;14.20;12.23;;;;;;;5.35;100.00;59527.94;6184742;23;20224;-59
2023/12/04 10:50:37;;;;;;;14.13;12.73;;;;;;;5.48;100.00;61477.06;6185070;23;20238;-57
2023/12/04 10:53:07;;;;;;;13.07;11.83;;;;;;;5.40;100.00;67282.97;6184289;23;20204;-56
2023/12/04 10:55:35;;;;;;;12.87;11.87;;;;;;;5.43;100.00;70845.41;6184743;23;20163;-58
2023/12/04 10:58:05;;;;;;;10.93;10.13;;;;;;;5.48;100.00;67939.03;6184469;23;20189;-58
2023/12/04 11:00:34;;;;;;;15.53;11.67;;;;;;;5.62;100.00;66661.22;6184254;23;20668;-58
2023/12/04 11:03:06;;;;;;;19.57;12.43;;;;;;;5.73;100.00;69909.59;6184701;23;20229;-57
2023/12/04 11:05:38;;;;;;;12.47;11.43;;;;;;;5.72;100.00;67319.63;6184681;23;20162;-56
2023/12/04 11:08:07;;;;;;;12.90;11.57;;;;;;;5.83;100.00;75106.63;6184956;23;20193;-57
2023/12/04 11:10:38;;;;;;;14.40;10.80;;;;;;;5.78;100.00;85491.56;6184854;23;20166;-58
2023/12/04 11:13:09;;;;;;;12.93;11.47;;;;;;;5.78;100.00;95261.19;6184175;23;20158;-60
2023/12/04 11:15:40;;;;;;;26.43;12.77;;;;;;;5.89;100.00;102790.78;6184568;23;20244;-56
2023/12/04 11:18:10;;;;;;;27.93;12.20;;;;;;;6.03;100.00;112964.72;6184073;23;20169;-57
2023/12/04 11:20:44;;;;;;;12.80;11.53;;;;;;;6.19;100.00;117263.50;6184157;23;20505;-57